首页
METAR-TAF:

METAR-TAF

机场 :

沃罗涅日, 俄罗斯

纬度: 51-39N, 经度: 039-15E, 海拔: 154米

当前天气观测

该预报发布于29分钟前的20:30 UTC
风速6节,风向西转西南
温度 -1°C
湿度 93%
气压 1019 hPa
能见度10公里或以上
1500米以下无云,无积雨云

METAR: UUOO 232030Z 25003MPS CAVOK M01/M02 Q1019 R30/090070 NOSIG RMK QFE751

时间: 23:59 (20:59 UTC)

预报

该预报发布于1小时和0分钟前的19:59 UTC
预报有效从23日的 21点(UTC)到 24日的 06点(UTC)
风速6节,风向西
能见度10公里或以上
散云层高于3000英尺

TAF: UUOO 231959Z 2321/2406 28003MPS 9999 SCT030

超过4000个机场的气象观测和天气预报(METAR&TAF报告)。

可查询的气象台以黄色和红色小点在地图上表示。

将鼠标移到小点上方,可查看气象台名称。

然后点击查看天气观测和预报。

如需切换地图:点击带黑十字的绿色按钮放大地图;点击带横线的绿色按钮缩小地图;或者点击绿色箭头查看邻近地区的地图。


METAR-TAF: